createdAt,value
2023-02-23T00:04:19.033Z,16.58
2023-02-23T00:09:26.032Z,16.67
2023-02-23T00:14:31.321Z,16.10
2023-02-23T00:19:37.867Z,15.55
2023-02-23T00:24:43.387Z,16.90
2023-02-23T00:29:49.675Z,15.94
2023-02-23T00:34:53.549Z,15.19
2023-02-23T00:39:58.300Z,15.35
2023-02-23T00:45:08.774Z,15.63
2023-02-23T00:50:14.887Z,15.13
2023-02-23T00:55:19.788Z,15.81
2023-02-23T01:00:26.647Z,16.56
2023-02-23T01:05:35.181Z,14.91
2023-02-23T01:10:43.030Z,14.85
2023-02-23T01:15:52.323Z,14.49
2023-02-23T01:20:55.734Z,14.89
2023-02-23T01:26:00.781Z,14.27
2023-02-23T01:31:09.358Z,14.80
2023-02-23T01:36:18.766Z,14.22
2023-02-23T01:41:28.104Z,13.90
2023-02-23T01:46:33.171Z,14.59
2023-02-23T01:51:43.066Z,15.38
2023-02-23T01:56:58.120Z,15.44
2023-02-23T02:02:05.099Z,14.71
2023-02-23T02:07:09.255Z,15.45
2023-02-23T02:12:14.998Z,16.48
2023-02-23T02:17:32.094Z,15.64
2023-02-23T02:22:48.238Z,16.01
2023-02-23T02:28:08.822Z,15.38
2023-02-23T02:33:37.999Z,15.73
2023-02-23T02:38:53.768Z,15.99
2023-02-23T02:44:01.823Z,15.98
2023-02-23T02:49:09.788Z,17.68
2023-02-23T02:54:25.177Z,16.56
2023-02-23T02:59:49.216Z,19.17
2023-02-23T03:05:11.010Z,13.99
2023-02-23T03:10:43.694Z,13.20
2023-02-23T03:16:13.692Z,13.07
2023-02-23T03:21:39.639Z,12.58
2023-02-23T03:27:09.497Z,12.55
2023-02-23T03:32:38.528Z,13.51
2023-02-23T03:38:04.952Z,13.32
2023-02-23T03:43:33.223Z,14.35
2023-02-23T03:48:56.176Z,13.73
2023-02-23T03:54:20.828Z,13.49
2023-02-23T03:59:46.463Z,14.41
2023-02-23T04:05:08.804Z,18.05
2023-02-23T04:10:31.731Z,23.39
2023-02-23T04:15:40.007Z,23.81
2023-02-23T04:20:48.083Z,22.22
2023-02-23T04:25:52.060Z,23.16
2023-02-23T04:30:57.485Z,21.79
2023-02-23T04:36:04.498Z,19.16
2023-02-23T04:41:07.895Z,32.89
2023-02-23T04:46:12.736Z,21.20
2023-02-23T04:51:16.256Z,21.38
2023-02-23T04:56:19.857Z,14.31
2023-02-23T05:01:27.333Z,14.00
2023-02-23T05:06:31.614Z,14.00
2023-02-23T05:11:35.184Z,14.09
2023-02-23T05:16:39.952Z,13.44
2023-02-23T05:21:43.305Z,15.02
2023-02-23T05:26:48.082Z,22.58
2023-02-23T05:31:53.007Z,23.72
2023-02-23T05:36:56.661Z,24.54
2023-02-23T05:42:00.124Z,22.89
2023-02-23T05:47:06.972Z,24.00
2023-02-23T05:52:10.338Z,22.53
2023-02-23T05:57:13.711Z,23.84
2023-02-23T06:02:18.478Z,23.06
2023-02-23T06:07:24.660Z,24.03
2023-02-23T06:12:28.361Z,28.10
2023-02-23T06:17:33.828Z,27.91
2023-02-23T06:22:37.185Z,27.45
2023-02-23T06:27:40.782Z,22.94
2023-02-23T06:32:45.553Z,25.36
2023-02-23T06:37:52.546Z,28.31
2023-02-23T06:42:55.961Z,25.83
2023-02-23T06:48:03.151Z,26.37
2023-02-23T06:53:06.637Z,22.74
2023-02-23T06:58:10.171Z,24.45
2023-02-23T07:03:15.093Z,25.28
2023-02-23T07:08:19.132Z,25.65
2023-02-23T07:13:22.522Z,20.30
2023-02-23T07:18:30.082Z,22.62
2023-02-23T07:23:33.477Z,22.36
2023-02-23T07:28:39.299Z,24.85
2023-02-23T07:33:44.398Z,24.97
2023-02-23T07:38:50.043Z,25.05
2023-02-23T07:43:55.984Z,27.58
2023-02-23T07:49:05.770Z,26.77
2023-02-23T07:54:11.298Z,25.85
2023-02-23T07:59:17.634Z,24.73
2023-02-23T08:04:22.419Z,24.86
2023-02-23T08:09:28.358Z,26.04
2023-02-23T08:14:32.304Z,33.92
2023-02-23T08:19:37.348Z,24.93
2023-02-23T08:24:43.202Z,24.31
2023-02-23T08:29:46.842Z,23.39
2023-02-23T08:34:51.570Z,24.91
2023-02-23T08:39:54.955Z,27.83
2023-02-23T08:44:59.218Z,25.57
2023-02-23T08:50:06.685Z,25.38
2023-02-23T08:55:11.787Z,21.11
2023-02-23T09:00:18.033Z,23.13
2023-02-23T09:05:22.891Z,24.23
2023-02-23T09:10:28.997Z,25.51
2023-02-23T09:15:34.534Z,24.68
2023-02-23T09:20:44.144Z,24.79
2023-02-23T09:25:47.670Z,24.50
2023-02-23T09:30:51.185Z,25.39
2023-02-23T09:35:58.355Z,25.64
2023-02-23T09:41:09.526Z,26.03
2023-02-23T09:46:21.319Z,26.83
2023-02-23T09:51:27.288Z,28.44
2023-02-23T09:56:35.895Z,26.10
2023-02-23T10:01:52.086Z,25.95
2023-02-23T10:07:01.534Z,23.09
2023-02-23T10:12:09.727Z,23.48
2023-02-23T10:17:24.398Z,24.03
2023-02-23T10:22:30.388Z,20.50
2023-02-23T10:27:40.036Z,18.69
2023-02-23T10:32:49.273Z,22.05
2023-02-23T10:37:54.356Z,23.18
2023-02-23T10:43:01.708Z,26.96
2023-02-23T10:48:07.099Z,26.34
2023-02-23T10:53:17.224Z,30.06
2023-02-23T10:58:21.425Z,29.69
2023-02-23T11:03:27.690Z,28.44
2023-02-23T11:08:36.874Z,27.81
2023-02-23T11:13:42.464Z,24.23
2023-02-23T11:18:51.677Z,22.45
2023-02-23T11:23:59.149Z,22.16
2023-02-23T11:29:11.167Z,24.33
2023-02-23T11:34:22.725Z,24.85
2023-02-23T11:39:27.483Z,25.38
2023-02-23T11:44:30.851Z,23.76
2023-02-23T11:49:36.073Z,22.81
2023-02-23T11:54:50.637Z,22.75
2023-02-23T11:59:57.401Z,22.99
2023-02-23T12:05:08.604Z,22.12
2023-02-23T12:10:20.208Z,22.54
2023-02-23T12:15:28.543Z,22.11
2023-02-23T12:20:40.896Z,23.23
2023-02-23T12:25:49.987Z,22.29
2023-02-23T12:30:58.253Z,23.78
2023-02-23T12:36:12.494Z,23.41
2023-02-23T12:41:21.350Z,24.26
2023-02-23T12:46:29.878Z,31.12
2023-02-23T12:51:37.129Z,20.73
2023-02-23T12:56:50.516Z,34.90
2023-02-23T13:01:59.576Z,22.48
2023-02-23T13:07:07.722Z,15.95
2023-02-23T13:12:23.411Z,15.34
2023-02-23T13:17:36.096Z,15.88
2023-02-23T13:22:47.541Z,15.56
2023-02-23T13:27:56.741Z,15.84
2023-02-23T13:33:03.390Z,14.72
2023-02-23T13:38:16.215Z,14.87
2023-02-23T13:43:27.205Z,14.58
2023-02-23T13:48:56.223Z,18.36
2023-02-23T13:54:03.164Z,16.58
2023-02-23T13:59:10.777Z,16.24
2023-02-23T14:04:16.557Z,17.07
2023-02-23T14:09:23.853Z,21.25
2023-02-23T14:14:43.767Z,21.65
2023-02-23T14:20:06.841Z,26.15
2023-02-23T14:25:28.878Z,24.73
2023-02-23T14:30:46.380Z,25.81
2023-02-23T14:35:49.854Z,24.78
2023-02-23T14:40:55.032Z,24.49
2023-02-23T14:46:06.035Z,24.19
2023-02-23T14:51:17.194Z,21.53
2023-02-23T14:56:22.157Z,17.02
2023-02-23T15:01:35.534Z,17.10
2023-02-23T15:06:42.354Z,17.13
2023-02-23T15:11:50.005Z,20.02
2023-02-23T15:16:56.974Z,17.13
2023-02-23T15:22:02.642Z,18.38
2023-02-23T15:27:06.368Z,17.74
2023-02-23T15:32:18.121Z,17.03
2023-02-23T15:37:28.138Z,17.54
2023-02-23T15:42:38.257Z,16.88
2023-02-23T15:47:45.656Z,17.25
2023-02-23T15:52:51.995Z,17.55
2023-02-23T15:57:58.910Z,18.51
2023-02-23T16:03:05.765Z,18.63
2023-02-23T16:08:22.825Z,30.59
2023-02-23T16:13:27.397Z,22.26
2023-02-23T16:18:39.573Z,19.72
2023-02-23T16:23:47.810Z,19.79
2023-02-23T16:28:56.501Z,21.16
2023-02-23T16:34:01.688Z,22.35
2023-02-23T16:39:08.102Z,24.32
2023-02-23T16:44:16.460Z,23.77
2023-02-23T16:49:23.487Z,25.28
2023-02-23T16:54:27.622Z,34.56
2023-02-23T16:59:31.259Z,37.39
2023-02-23T17:04:36.174Z,32.26
2023-02-23T17:09:39.595Z,33.38
2023-02-23T17:14:45.722Z,29.30
2023-02-23T17:19:50.483Z,27.72
2023-02-23T17:24:53.833Z,27.18
2023-02-23T17:29:57.227Z,27.43
2023-02-23T17:35:02.064Z,27.51
2023-02-23T17:40:08.047Z,28.82
2023-02-23T17:45:11.878Z,27.94
2023-02-23T17:50:16.675Z,47.90
2023-02-23T17:55:21.565Z,41.76
2023-02-23T18:00:25.258Z,36.13
2023-02-23T18:05:30.140Z,36.49
2023-02-23T18:10:36.858Z,37.54
2023-02-23T18:15:40.672Z,40.66
2023-02-23T18:20:50.736Z,39.49
2023-02-23T18:26:05.361Z,41.41
2023-02-23T18:31:09.008Z,38.95
2023-02-23T18:36:18.898Z,38.49
2023-02-23T18:41:22.916Z,33.35
2023-02-23T18:46:31.675Z,30.99
2023-02-23T18:51:38.824Z,30.96
2023-02-23T18:56:45.888Z,42.22
2023-02-23T19:01:52.812Z,33.13
2023-02-23T19:06:58.902Z,31.89
2023-02-23T19:12:04.846Z,36.81
2023-02-23T19:17:08.340Z,30.59
2023-02-23T19:22:13.111Z,31.59
2023-02-23T19:27:19.122Z,31.29
2023-02-23T19:32:25.244Z,31.80
2023-02-23T19:37:30.519Z,31.66
2023-02-23T19:42:35.179Z,30.84
2023-02-23T19:47:38.742Z,31.14
2023-02-23T19:52:44.588Z,31.97
2023-02-23T19:57:48.164Z,35.19
2023-02-23T20:02:55.677Z,37.21
2023-02-23T20:08:00.518Z,38.28
2023-02-23T20:13:06.124Z,37.53
2023-02-23T20:18:10.067Z,38.60
2023-02-23T20:23:14.873Z,41.06
2023-02-23T20:28:20.958Z,39.54
2023-02-23T20:33:24.404Z,44.96
2023-02-23T20:38:29.266Z,40.65
2023-02-23T20:43:32.988Z,41.59
2023-02-23T20:48:38.859Z,42.17
2023-02-23T20:53:48.233Z,43.68
2023-02-23T20:58:54.408Z,48.76
2023-02-23T21:04:01.473Z,43.72
2023-02-23T21:09:07.135Z,43.44
2023-02-23T21:14:10.768Z,42.83
2023-02-23T21:19:14.873Z,42.98
2023-02-23T21:24:20.623Z,44.53
2023-02-23T21:29:24.174Z,47.08
2023-02-23T21:34:27.679Z,47.29
2023-02-23T21:39:34.882Z,65.38
2023-02-23T21:44:38.412Z,51.01
2023-02-23T21:49:41.977Z,50.52
2023-02-23T21:54:51.444Z,48.96
2023-02-23T21:59:55.126Z,50.88
2023-02-23T22:04:58.607Z,51.23
2023-02-23T22:10:03.534Z,50.02
2023-02-23T22:15:08.222Z,48.10
2023-02-23T22:20:12.371Z,49.66
2023-02-23T22:25:18.118Z,50.80
2023-02-23T22:30:23.684Z,51.56
2023-02-23T22:35:27.199Z,53.69
2023-02-23T22:40:32.085Z,54.01
2023-02-23T22:45:36.621Z,53.16
2023-02-23T22:50:42.738Z,55.13
2023-02-23T22:55:48.974Z,54.08
2023-02-23T23:01:04.031Z,53.72
2023-02-23T23:06:09.147Z,54.98
2023-02-23T23:11:15.612Z,54.92
2023-02-23T23:16:31.146Z,52.15
2023-02-23T23:21:36.845Z,50.26
2023-02-23T23:26:44.397Z,51.10
2023-02-23T23:31:48.460Z,51.09
2023-02-23T23:36:55.414Z,51.09
2023-02-23T23:42:01.823Z,51.75
2023-02-23T23:47:05.727Z,50.65
2023-02-23T23:52:09.459Z,51.82
2023-02-23T23:57:14.485Z,53.04
